Time;durP1;ratioP1;P1;durP2;ratioP2;P2;SDS_P1;SDS_P2;PMS_P1;PMS_P2;Temp;Humidity;BMP_temperature;BMP_pressure;BME280_temperature;BME280_humidity;BME280_pressure;Samples;Min_cycle;Max_cycle;Signal;HPM_P1;HPM_P2
2022/06/25 00:01:38;;;;;;;3.00;2.00;;;;;;;;;;5013561;28;20242;-84
2022/06/25 00:05:27;;;;;;;2.47;1.77;;;;;;;;;;5013147;28;20719;-84
2022/06/25 00:06:52;;;;;;;3.27;1.90;;;;;;;;;;5013144;28;20207;-85
2022/06/25 00:09:19;;;;;;;2.13;2.03;;;;;;;;;;5013557;28;20707;-85
2022/06/25 00:14:32;;;;;;;2.07;1.87;;;;;;;;;;5013592;28;20612;-84
2022/06/25 00:16:59;;;;;;;4.23;2.10;;;;;;;;;;5023393;28;20215;-85
2022/06/25 00:19:26;;;;;;;2.03;1.90;;;;;;;;;;5031188;28;20262;-85
2022/06/25 00:21:53;;;;;;;2.00;1.90;;;;;;;;;;5029301;28;20242;-86
2022/06/25 00:24:20;;;;;;;4.87;2.17;;;;;;;;;;5029175;28;20250;-85
2022/06/25 00:26:48;;;;;;;4.60;1.87;;;;;;;;;;5030312;28;20302;-87
2022/06/25 00:29:15;;;;;;;2.20;2.00;;;;;;;;;;5029733;28;20243;-85
2022/06/25 00:31:43;;;;;;;3.57;1.90;;;;;;;;;;5029055;28;20232;-85
2022/06/25 00:34:10;;;;;;;4.00;1.97;;;;;;;;;;5029664;28;20235;-84
2022/06/25 00:36:37;;;;;;;2.13;2.00;;;;;;;;;;5030983;28;20298;-88
2022/06/25 00:39:04;;;;;;;5.67;1.90;;;;;;;;;;5029859;28;20238;-84
2022/06/25 00:41:31;;;;;;;3.57;1.90;;;;;;;;;;5014999;28;20231;-84
2022/06/25 00:44:00;;;;;;;2.30;2.07;;;;;;;;;;5013956;28;20242;-86
2022/06/25 00:46:27;;;;;;;2.00;1.90;;;;;;;;;;5014174;28;20207;-86
2022/06/25 00:48:54;;;;;;;2.30;1.80;;;;;;;;;;5013323;28;20310;-84
2022/06/25 00:51:22;;;;;;;2.97;1.90;;;;;;;;;;5014288;28;20242;-86
2022/06/25 00:53:50;;;;;;;2.33;2.00;;;;;;;;;;5013815;28;20211;-85
2022/06/25 00:56:17;;;;;;;2.10;2.00;;;;;;;;;;5014100;28;20219;-84
2022/06/25 00:58:45;;;;;;;5.37;2.30;;;;;;;;;;5013085;28;20199;-85
2022/06/25 01:01:14;;;;;;;2.43;2.00;;;;;;;;;;5013580;28;20231;-85
2022/06/25 01:03:41;;;;;;;2.00;1.80;;;;;;;;;;5012285;28;20244;-84
2022/06/25 01:06:08;;;;;;;2.00;1.90;;;;;;;;;;5012468;28;20207;-85
2022/06/25 01:08:35;;;;;;;5.33;2.33;;;;;;;;;;5012343;28;20219;-84
2022/06/25 01:11:03;;;;;;;3.63;1.97;;;;;;;;;;5012592;28;20696;-84
2022/06/25 01:13:30;;;;;;;2.27;2.00;;;;;;;;;;5012622;28;20218;-84
2022/06/25 01:15:57;;;;;;;4.87;2.20;;;;;;;;;;5011870;28;20647;-84
2022/06/25 01:18:26;;;;;;;2.70;2.10;;;;;;;;;;5011914;28;20207;-84
2022/06/25 01:20:53;;;;;;;2.40;2.20;;;;;;;;;;5011958;28;20246;-84
2022/06/25 01:23:21;;;;;;;2.93;2.43;;;;;;;;;;5012656;28;20618;-85
2022/06/25 01:25:48;;;;;;;3.00;2.70;;;;;;;;;;5011818;28;20611;-84
2022/06/25 01:28:15;;;;;;;2.63;2.00;;;;;;;;;;5012574;28;20218;-84
2022/06/25 01:30:42;;;;;;;2.10;2.00;;;;;;;;;;5011912;28;20235;-85
2022/06/25 01:33:10;;;;;;;2.80;2.10;;;;;;;;;;5012798;28;20218;-84
2022/06/25 01:35:37;;;;;;;2.77;2.30;;;;;;;;;;5012216;28;20579;-84
2022/06/25 01:38:04;;;;;;;3.43;2.30;;;;;;;;;;5012469;28;20207;-84
2022/06/25 01:40:33;;;;;;;4.63;2.10;;;;;;;;;;5011826;28;20246;-84
2022/06/25 01:43:00;;;;;;;2.53;2.33;;;;;;;;;;5012379;28;20249;-84
2022/06/25 01:45:28;;;;;;;4.57;2.40;;;;;;;;;;5011663;28;20591;-84
2022/06/25 01:47:55;;;;;;;2.33;2.13;;;;;;;;;;5012241;28;20207;-86
2022/06/25 01:50:22;;;;;;;3.43;2.20;;;;;;;;;;5011598;28;20680;-84
2022/06/25 01:52:49;;;;;;;5.00;2.57;;;;;;;;;;5012585;28;20211;-85
2022/06/25 01:55:16;;;;;;;2.90;2.40;;;;;;;;;;5011913;28;20235;-84
2022/06/25 01:57:45;;;;;;;2.20;2.10;;;;;;;;;;5012338;28;20218;-84
2022/06/25 02:00:13;;;;;;;2.73;2.53;;;;;;;;;;5011952;28;20246;-84
2022/06/25 02:02:41;;;;;;;3.40;2.13;;;;;;;;;;5012098;28;20771;-84
2022/06/25 02:05:08;;;;;;;2.17;2.03;;;;;;;;;;5012001;28;20318;-84
2022/06/25 02:07:36;;;;;;;3.83;2.17;;;;;;;;;;5012814;28;20215;-85
2022/06/25 02:10:03;;;;;;;3.03;2.40;;;;;;;;;;5012084;28;20239;-84
2022/06/25 02:12:30;;;;;;;2.93;2.23;;;;;;;;;;5012753;28;20199;-85
2022/06/25 02:14:58;;;;;;;3.07;2.23;;;;;;;;;;5012264;28;20311;-84
2022/06/25 02:17:25;;;;;;;6.97;2.40;;;;;;;;;;5012712;28;20208;-84
2022/06/25 02:19:52;;;;;;;2.53;2.17;;;;;;;;;;5011856;28;20232;-84
2022/06/25 02:22:19;;;;;;;2.27;2.10;;;;;;;;;;5012323;28;20207;-84
2022/06/25 02:24:46;;;;;;;3.03;2.67;;;;;;;;;;5011425;28;20725;-84
2022/06/25 02:27:13;;;;;;;4.20;2.47;;;;;;;;;;5012112;28;20210;-83
2022/06/25 02:29:40;;;;;;;2.73;2.53;;;;;;;;;;5014554;28;20238;-84
2022/06/25 02:32:09;;;;;;;7.00;2.60;;;;;;;;;;5015930;28;20211;-84
2022/06/25 02:34:36;;;;;;;4.17;2.80;;;;;;;;;;5014970;28;20239;-86
2022/06/25 02:37:03;;;;;;;6.50;2.97;;;;;;;;;;5015665;28;20634;-84
2022/06/25 02:39:30;;;;;;;4.73;2.70;;;;;;;;;;5015085;28;20719;-86
2022/06/25 02:41:57;;;;;;;5.20;2.90;;;;;;;;;;5015436;28;20258;-84
2022/06/25 02:44:24;;;;;;;5.07;2.90;;;;;;;;;;5014950;28;20334;-85
2022/06/25 02:46:51;;;;;;;4.47;2.90;;;;;;;;;;5015735;28;20555;-84
2022/06/25 02:49:20;;;;;;;3.97;2.90;;;;;;;;;;5014936;28;20231;-83
2022/06/25 02:51:47;;;;;;;3.63;2.70;;;;;;;;;;5015169;28;20235;-84
2022/06/25 02:54:14;;;;;;;4.00;2.70;;;;;;;;;;5014466;28;20713;-84
2022/06/25 02:59:26;;;;;;;2.87;2.63;;;;;;;;;;5014643;28;20654;-84
2022/06/25 03:01:55;;;;;;;3.03;2.77;;;;;;;;;;5047681;22;20238;-83
2022/06/25 03:04:24;;;;;;;4.23;2.80;;;;;;;;;;5034390;28;20242;-82
2022/06/25 03:06:51;;;;;;;2.83;2.63;;;;;;;;;;5035263;28;20294;-82
2022/06/25 03:09:18;;;;;;;4.73;3.00;;;;;;;;;;5034412;28;20239;-82
2022/06/25 03:11:46;;;;;;;3.90;2.77;;;;;;;;;;5035070;28;20233;-82
2022/06/25 03:14:13;;;;;;;4.43;3.13;;;;;;;;;;5033924;28;20292;-83
2022/06/25 03:16:40;;;;;;;7.63;2.97;;;;;;;;;;5041389;28;20615;-82
2022/06/25 03:19:07;;;;;;;9.00;3.37;;;;;;;;;;5036817;28;20238;-82
2022/06/25 03:21:36;;;;;;;3.97;3.03;;;;;;;;;;5035450;28;20238;-82
2022/06/25 03:24:03;;;;;;;5.97;3.33;;;;;;;;;;5034590;28;20237;-82
2022/06/25 03:26:30;;;;;;;4.37;2.97;;;;;;;;;;5035012;28;20226;-83
2022/06/25 03:28:58;;;;;;;2.77;2.50;;;;;;;;;;5034219;28;20250;-83
2022/06/25 03:31:25;;;;;;;9.63;3.27;;;;;;;;;;5034536;28;20227;-82
2022/06/25 03:33:52;;;;;;;4.03;2.80;;;;;;;;;;5033834;28;20234;-82
2022/06/25 03:36:20;;;;;;;5.80;3.23;;;;;;;;;;5034765;28;20242;-84
2022/06/25 03:38:48;;;;;;;7.70;3.57;;;;;;;;;;5034210;28;20206;-84
2022/06/25 03:41:35;;;;;;;5.30;3.10;;;;;;;;;;5033608;28;20230;-84
2022/06/25 03:44:03;;;;;;;4.17;3.03;;;;;;;;;;5033972;28;20235;-84
2022/06/25 03:46:30;;;;;;;6.03;3.20;;;;;;;;;;5034398;28;20614;-84
2022/06/25 03:48:57;;;;;;;5.63;2.97;;;;;;;;;;5033833;28;20241;-84
2022/06/25 03:51:24;;;;;;;10.33;3.83;;;;;;;;;;5034337;28;20652;-84
2022/06/25 03:53:52;;;;;;;4.43;3.50;;;;;;;;;;5033409;28;20740;-83
2022/06/25 03:56:20;;;;;;;6.23;4.17;;;;;;;;;;5046233;28;20207;-84
2022/06/25 03:58:47;;;;;;;4.77;4.37;;;;;;;;;;5033525;28;20199;-84
2022/06/25 04:01:15;;;;;;;9.43;4.10;;;;;;;;;;5034149;28;20242;-84
2022/06/25 04:03:42;;;;;;;5.63;3.83;;;;;;;;;;5033602;28;20210;-84
2022/06/25 04:06:09;;;;;;;5.97;4.10;;;;;;;;;;5033814;28;20222;-84
2022/06/25 04:08:37;;;;;;;6.93;4.70;;;;;;;;;;5034128;28;20215;-83
2022/06/25 04:11:06;;;;;;;4.30;4.00;;;;;;;;;;5033829;28;20250;-84
2022/06/25 04:13:33;;;;;;;7.50;4.80;;;;;;;;;;5033468;28;20209;-84
2022/06/25 04:16:00;;;;;;;7.97;4.10;;;;;;;;;;5033773;28;20210;-84
2022/06/25 04:18:27;;;;;;;7.33;4.53;;;;;;;;;;5034128;28;20214;-84
2022/06/25 04:20:54;;;;;;;5.20;4.70;;;;;;;;;;5032946;28;20273;-83
2022/06/25 04:23:21;;;;;;;5.90;5.30;;;;;;;;;;5033220;28;20226;-84
2022/06/25 04:25:48;;;;;;;6.10;5.07;;;;;;;;;;5034258;28;20246;-83
2022/06/25 04:31:01;;;;;;;6.83;5.00;;;;;;;;;;5032705;28;20272;-84
2022/06/25 04:33:28;;;;;;;5.93;5.40;;;;;;;;;;5032834;28;20652;-83
2022/06/25 04:35:55;;;;;;;6.80;5.60;;;;;;;;;;5032844;28;20683;-84
2022/06/25 04:38:22;;;;;;;5.63;4.90;;;;;;;;;;5032591;28;20616;-84
2022/06/25 04:40:49;;;;;;;8.03;4.83;;;;;;;;;;5032326;28;20278;-85
2022/06/25 04:43:18;;;;;;;7.37;4.37;;;;;;;;;;5032517;28;20234;-84
2022/06/25 04:45:45;;;;;;;5.73;4.70;;;;;;;;;;5032751;28;20706;-84
2022/06/25 04:48:12;;;;;;;5.53;5.03;;;;;;;;;;5032855;28;20199;-83
2022/06/25 04:50:39;;;;;;;6.83;5.40;;;;;;;;;;5032405;28;20237;-84
2022/06/25 04:53:06;;;;;;;6.93;6.23;;;;;;;;;;5032785;28;20191;-84
2022/06/25 04:55:33;;;;;;;7.60;5.93;;;;;;;;;;5032498;28;20281;-84
2022/06/25 04:58:00;;;;;;;6.93;5.37;;;;;;;;;;5033287;28;20597;-84
2022/06/25 05:00:28;;;;;;;6.37;5.27;;;;;;;;;;5032269;28;20234;-84
2022/06/25 05:02:55;;;;;;;5.00;4.50;;;;;;;;;;5032818;28;20230;-84
2022/06/25 05:05:23;;;;;;;5.93;5.33;;;;;;;;;;5031975;28;20238;-84
2022/06/25 05:07:50;;;;;;;5.73;4.80;;;;;;;;;;5032684;28;20551;-83
2022/06/25 05:10:17;;;;;;;5.97;5.27;;;;;;;;;;5032702;28;20602;-85
2022/06/25 05:15:30;;;;;;;7.23;4.70;;;;;;;;;;5032778;28;20233;-83
2022/06/25 05:17:57;;;;;;;5.67;4.23;;;;;;;;;;5033221;28;20211;-83
2022/06/25 05:20:24;;;;;;;4.53;3.80;;;;;;;;;;5033582;28;20241;-83
2022/06/25 05:22:51;;;;;;;5.43;3.60;;;;;;;;;;5033330;28;20729;-84
2022/06/25 05:25:18;;;;;;;5.27;3.20;;;;;;;;;;5035132;28;20244;-83
2022/06/25 05:27:46;;;;;;;7.27;3.83;;;;;;;;;;5037054;28;20206;-83
2022/06/25 05:30:13;;;;;;;4.03;3.60;;;;;;;;;;5035648;28;20238;-83
2022/06/25 05:32:41;;;;;;;4.10;3.70;;;;;;;;;;5036977;28;20230;-83
2022/06/25 05:35:09;;;;;;;5.23;3.57;;;;;;;;;;5035939;28;20269;-82
2022/06/25 05:37:36;;;;;;;8.23;3.63;;;;;;;;;;5036621;28;20278;-83
2022/06/25 05:40:03;;;;;;;5.47;3.70;;;;;;;;;;5035240;28;20241;-82
2022/06/25 05:42:30;;;;;;;4.93;4.40;;;;;;;;;;5036285;28;20594;-83
2022/06/25 05:44:57;;;;;;;6.57;5.37;;;;;;;;;;5035342;28;20245;-82
2022/06/25 05:47:24;;;;;;;4.73;3.60;;;;;;;;;;5039816;28;20218;-82
2022/06/25 05:49:52;;;;;;;6.53;4.03;;;;;;;;;;5036063;28;20591;-82
2022/06/25 05:52:19;;;;;;;4.23;3.80;;;;;;;;;;5036281;28;20223;-82
2022/06/25 05:54:46;;;;;;;4.37;3.83;;;;;;;;;;5035281;28;20242;-82
2022/06/25 05:57:13;;;;;;;3.53;3.20;;;;;;;;;;5036889;28;20203;-81
2022/06/25 05:59:40;;;;;;;5.13;3.13;;;;;;;;;;5036348;28;20241;-82
2022/06/25 06:02:08;;;;;;;3.27;3.07;;;;;;;;;;5036685;28;20624;-82
2022/06/25 06:04:35;;;;;;;4.90;3.20;;;;;;;;;;5038775;28;20238;-81
2022/06/25 06:07:03;;;;;;;5.20;3.20;;;;;;;;;;5038806;28;20508;-80
2022/06/25 06:09:31;;;;;;;3.30;3.10;;;;;;;;;;5037835;28;20245;-83
2022/06/25 06:11:59;;;;;;;3.70;3.40;;;;;;;;;;5037486;28;20800;-81
2022/06/25 06:14:26;;;;;;;3.27;3.00;;;;;;;;;;5037070;28;20239;-80
2022/06/25 06:16:53;;;;;;;6.90;3.23;;;;;;;;;;5038372;28;20203;-80
2022/06/25 06:19:20;;;;;;;3.60;3.30;;;;;;;;;;5037274;28;20244;-83
2022/06/25 06:21:47;;;;;;;4.20;3.80;;;;;;;;;;5038076;28;20225;-80
2022/06/25 06:24:16;;;;;;;4.17;3.40;;;;;;;;;;5038265;28;20235;-80
2022/06/25 06:26:43;;;;;;;3.37;3.07;;;;;;;;;;5038254;28;20230;-81
2022/06/25 06:29:10;;;;;;;5.83;3.50;;;;;;;;;;5037968;28;20230;-80
2022/06/25 06:31:37;;;;;;;5.63;3.57;;;;;;;;;;5038896;28;20237;-81
2022/06/25 06:34:04;;;;;;;3.80;3.50;;;;;;;;;;5038016;28;20703;-80
2022/06/25 06:36:31;;;;;;;5.03;3.45;;;;;;;;;;5039188;28;20268;-82
2022/06/25 06:38:58;;;;;;;4.05;3.63;;;;;;;;;;5043491;28;20234;-80
2022/06/25 06:41:26;;;;;;;3.47;2.88;;;;;;;;;;5044107;28;20221;-83
2022/06/25 06:43:53;;;;;;;3.30;3.00;;;;;;;;;;5042122;28;20721;-81
2022/06/25 06:46:21;;;;;;;8.88;2.75;;;;;;;;;;5043108;28;20230;-80
2022/06/25 06:48:48;;;;;;;4.05;3.20;;;;;;;;;;5042829;28;20199;-81
2022/06/25 06:51:15;;;;;;;4.55;2.90;;;;;;;;;;5043160;28;20230;-80
2022/06/25 06:53:42;;;;;;;4.00;3.13;;;;;;;;;;5042416;28;20214;-80
2022/06/25 06:56:09;;;;;;;6.68;2.90;;;;;;;;;;5043164;28;20214;-81
2022/06/25 06:58:38;;;;;;;2.67;2.47;;;;;;;;;;5043739;28;20210;-81
2022/06/25 07:01:05;;;;;;;2.90;2.65;;;;;;;;;;5042978;28;20317;-81
2022/06/25 07:03:32;;;;;;;3.63;3.03;;;;;;;;;;5041686;28;20206;-81
2022/06/25 07:05:59;;;;;;;4.30;2.72;;;;;;;;;;5044984;28;20234;-81
2022/06/25 07:08:27;;;;;;;2.90;2.60;;;;;;;;;;5043826;28;20210;-82
2022/06/25 07:10:54;;;;;;;2.92;2.63;;;;;;;;;;5045119;28;20234;-82
2022/06/25 07:13:21;;;;;;;3.00;2.70;;;;;;;;;;5045284;28;20213;-81
2022/06/25 07:15:49;;;;;;;3.60;2.90;;;;;;;;;;5045900;28;20234;-83
2022/06/25 07:18:16;;;;;;;3.05;2.47;;;;;;;;;;5046238;28;20206;-81
2022/06/25 07:20:43;;;;;;;5.00;2.78;;;;;;;;;;5045312;28;20234;-81
2022/06/25 07:23:11;;;;;;;4.18;2.83;;;;;;;;;;5046092;28;20215;-84
2022/06/25 07:25:38;;;;;;;3.03;2.70;;;;;;;;;;5045442;28;20245;-81
2022/06/25 07:28:05;;;;;;;2.67;2.47;;;;;;;;;;5045603;28;20210;-81
2022/06/25 07:30:32;;;;;;;6.13;2.47;;;;;;;;;;5044249;28;20242;-81
2022/06/25 07:33:00;;;;;;;2.40;2.20;;;;;;;;;;5046008;28;20231;-82
2022/06/25 07:35:27;;;;;;;2.35;2.15;;;;;;;;;;5045409;28;20729;-83
2022/06/25 07:37:55;;;;;;;2.40;2.20;;;;;;;;;;5045332;28;20211;-82
2022/06/25 07:40:22;;;;;;;2.67;2.25;;;;;;;;;;5047251;28;20261;-82
2022/06/25 07:42:49;;;;;;;2.50;2.30;;;;;;;;;;5044633;28;20227;-83
2022/06/25 07:45:16;;;;;;;2.17;2.08;;;;;;;;;;5038471;28;20265;-83
2022/06/25 07:47:43;;;;;;;2.80;2.55;;;;;;;;;;5039249;28;20222;-82
2022/06/25 07:52:57;;;;;;;2.30;2.13;;;;;;;;;;5039855;28;20592;-82
2022/06/25 07:55:24;;;;;;;3.15;2.70;;;;;;;;;;5040644;28;20239;-83
2022/06/25 07:57:51;;;;;;;6.03;2.17;;;;;;;;;;5041450;28;20203;-83
2022/06/25 08:00:18;;;;;;;3.10;2.33;;;;;;;;;;5040584;28;20242;-82
2022/06/25 08:02:45;;;;;;;3.63;2.20;;;;;;;;;;5039061;28;20242;-82
2022/06/25 08:05:13;;;;;;;2.03;1.92;;;;;;;;;;5042163;28;20246;-83
2022/06/25 08:07:40;;;;;;;3.88;1.77;;;;;;;;;;5043340;28;20226;-83
2022/06/25 08:10:08;;;;;;;2.28;1.80;;;;;;;;;;5041421;28;20234;-84
2022/06/25 08:12:35;;;;;;;4.07;2.15;;;;;;;;;;5041256;28;20226;-83
2022/06/25 08:15:02;;;;;;;3.75;2.15;;;;;;;;;;5041111;28;20242;-84
2022/06/25 08:17:30;;;;;;;2.20;2.00;;;;;;;;;;5042905;28;20213;-83
2022/06/25 08:19:57;;;;;;;2.63;2.15;;;;;;;;;;5042471;28;20238;-83
2022/06/25 08:22:25;;;;;;;3.88;2.15;;;;;;;;;;5043341;28;20223;-84
2022/06/25 08:24:52;;;;;;;2.10;1.80;;;;;;;;;;5042094;28;20749;-83
2022/06/25 08:27:19;;;;;;;3.13;1.90;;;;;;;;;;5041726;28;20231;-83
2022/06/25 08:29:46;;;;;;;1.80;1.70;;;;;;;;;;5043597;28;20323;-83
2022/06/25 08:32:13;;;;;;;1.90;1.67;;;;;;;;;;5042504;28;20234;-84
2022/06/25 08:34:40;;;;;;;2.05;1.90;;;;;;;;;;5040088;28;20230;-84
2022/06/25 08:37:08;;;;;;;2.10;1.80;;;;;;;;;;5042206;28;20203;-82
2022/06/25 08:39:36;;;;;;;2.58;1.98;;;;;;;;;;5041250;28;20245;-83
2022/06/25 08:42:04;;;;;;;1.88;1.77;;;;;;;;;;5041994;28;20225;-83
2022/06/25 08:44:32;;;;;;;1.60;1.50;;;;;;;;;;5039504;28;20238;-83
2022/06/25 08:46:59;;;;;;;3.92;1.88;;;;;;;;;;5037368;28;20253;-83
2022/06/25 08:49:27;;;;;;;2.75;1.70;;;;;;;;;;5037218;28;20238;-83
2022/06/25 08:51:54;;;;;;;2.40;1.60;;;;;;;;;;5037239;28;20222;-81
2022/06/25 08:54:22;;;;;;;1.90;1.80;;;;;;;;;;5045676;28;20241;-85
2022/06/25 08:56:50;;;;;;;2.10;1.60;;;;;;;;;;5036428;28;20207;-83
2022/06/25 08:59:17;;;;;;;1.80;1.70;;;;;;;;;;5032664;28;20258;-83
2022/06/25 09:01:44;;;;;;;1.70;1.60;;;;;;;;;;5033606;28;20239;-83
2022/06/25 09:04:11;;;;;;;1.98;1.80;;;;;;;;;;5032250;28;20238;-82
2022/06/25 09:06:38;;;;;;;3.90;1.83;;;;;;;;;;5032868;28;20575;-83
2022/06/25 09:09:10;;;;;;;1.95;1.85;;;;;;;;;;5032483;28;20277;-83
2022/06/25 09:11:50;;;;;;;4.63;1.70;;;;;;;;;;5032698;28;20265;-83
2022/06/25 09:14:21;;;;;;;1.83;1.73;;;;;;;;;;5032616;28;20235;-83
2022/06/25 09:16:50;;;;;;;3.90;1.90;;;;;;;;;;5033030;28;20207;-83
2022/06/25 09:19:28;;;;;;;1.65;1.55;;;;;;;;;;5033238;28;20258;-83
2022/06/25 09:21:55;;;;;;;1.85;1.60;;;;;;;;;;5033259;28;20272;-83
2022/06/25 09:24:22;;;;;;;4.65;2.20;;;;;;;;;;5032357;28;20744;-83
2022/06/25 09:26:53;;;;;;;2.63;1.60;;;;;;;;;;5032768;28;20227;-83
2022/06/25 09:29:20;;;;;;;2.15;1.65;;;;;;;;;;5032844;28;20241;-83
2022/06/25 09:31:47;;;;;;;2.08;1.60;;;;;;;;;;5034757;28;20253;-83
2022/06/25 09:34:14;;;;;;;1.92;1.60;;;;;;;;;;5035603;28;20297;-83
2022/06/25 09:36:42;;;;;;;2.70;1.60;;;;;;;;;;5036047;28;20203;-83
2022/06/25 09:39:09;;;;;;;2.33;1.50;;;;;;;;;;5037881;28;20253;-83
2022/06/25 09:41:50;;;;;;;2.72;1.70;;;;;;;;;;5040949;28;20237;-83
2022/06/25 09:44:19;;;;;;;3.80;1.60;;;;;;;;;;5038896;28;20241;-84
2022/06/25 09:46:56;;;;;;;4.53;1.70;;;;;;;;;;5040174;28;20231;-84
2022/06/25 09:49:23;;;;;;;2.45;1.60;;;;;;;;;;5041304;28;20230;-83
2022/06/25 09:51:59;;;;;;;3.92;1.50;;;;;;;;;;5038944;28;20249;-85
2022/06/25 09:54:26;;;;;;;3.85;1.67;;;;;;;;;;5040711;28;20248;-83
2022/06/25 09:56:54;;;;;;;2.20;1.45;;;;;;;;;;5045110;28;20229;-84
2022/06/25 09:59:25;;;;;;;2.20;1.52;;;;;;;;;;5042894;28;20717;-83
2022/06/25 10:01:52;;;;;;;2.03;1.60;;;;;;;;;;5040254;28;20265;-83
2022/06/25 10:04:20;;;;;;;2.70;1.15;;;;;;;;;;5039183;28;20239;-84
2022/06/25 10:06:48;;;;;;;1.52;1.42;;;;;;;;;;5041567;28;20578;-83
2022/06/25 10:09:16;;;;;;;1.40;1.40;;;;;;;;;;5040596;28;20247;-83
2022/06/25 10:11:43;;;;;;;2.15;1.10;;;;;;;;;;5041423;28;20219;-83
2022/06/25 10:14:10;;;;;;;1.23;1.23;;;;;;;;;;5040200;28;20227;-83
2022/06/25 10:16:39;;;;;;;1.40;1.30;;;;;;;;;;5039492;28;20213;-84
2022/06/25 10:19:06;;;;;;;6.70;1.48;;;;;;;;;;5041886;28;20237;-83
2022/06/25 10:21:33;;;;;;;1.80;1.20;;;;;;;;;;5041025;28;20228;-83
2022/06/25 10:24:03;;;;;;;2.00;1.33;;;;;;;;;;5042984;28;20230;-83
2022/06/25 10:26:30;;;;;;;4.05;1.42;;;;;;;;;;5041138;28;20218;-84
2022/06/25 10:28:57;;;;;;;1.42;1.15;;;;;;;;;;5040547;28;20241;-83
2022/06/25 10:31:25;;;;;;;2.65;1.30;;;;;;;;;;5040894;28;20233;-84
2022/06/25 10:33:55;;;;;;;3.10;1.17;;;;;;;;;;5039953;28;20701;-84
2022/06/25 10:36:36;;;;;;;1.73;1.63;;;;;;;;;;5040598;28;20213;-84
2022/06/25 10:39:24;;;;;;;2.10;1.10;;;;;;;;;;5039951;28;20261;-83
2022/06/25 10:44:51;;;;;;;1.23;1.10;;;;;;;;;;5039949;28;20237;-83
2022/06/25 10:47:18;;;;;;;1.25;1.17;;;;;;;;;;5039088;28;20226;-83
2022/06/25 10:49:46;;;;;;;2.10;1.30;;;;;;;;;;5038660;28;20234;-83
2022/06/25 10:52:17;;;;;;;1.77;1.60;;;;;;;;;;5039863;28;20722;-82
2022/06/25 10:54:47;;;;;;;2.40;1.20;;;;;;;;;;5040374;28;20238;-83
2022/06/25 10:57:14;;;;;;;1.95;1.02;;;;;;;;;;5038067;28;20670;-84
2022/06/25 10:59:46;;;;;;;2.70;1.13;;;;;;;;;;5040435;28;20242;-83
2022/06/25 11:02:13;;;;;;;2.63;1.00;;;;;;;;;;5039380;28;20246;-82
2022/06/25 11:04:48;;;;;;;1.45;1.05;;;;;;;;;;5038197;28;20226;-83
2022/06/25 11:07:17;;;;;;;1.13;0.93;;;;;;;;;;5037397;28;20230;-83
2022/06/25 11:09:53;;;;;;;4.05;1.40;;;;;;;;;;5038242;28;20321;-83
2022/06/25 11:12:20;;;;;;;2.65;1.05;;;;;;;;;;5038839;28;20710;-83
2022/06/25 11:14:50;;;;;;;8.80;7.80;;;;;;;;;;5039189;28;20722;-83
2022/06/25 11:17:17;;;;;;;4.40;3.72;;;;;;;;;;5041098;28;20206;-83
2022/06/25 11:19:44;;;;;;;3.03;2.72;;;;;;;;;;5038272;28;20288;-83
2022/06/25 11:22:11;;;;;;;5.22;3.38;;;;;;;;;;5037157;28;20661;-83
2022/06/25 11:28:47;;;;;;;3.63;1.35;;;;;;;;;;5035538;28;20737;-82
2022/06/25 11:30:14;;;;;;;3.05;1.60;;;;;;;;;;5036767;28;20245;-83
2022/06/25 11:32:43;;;;;;;4.40;1.00;;;;;;;;;;5036395;28;20222;-83
2022/06/25 11:35:11;;;;;;;1.30;1.10;;;;;;;;;;5035835;28;20242;-84
2022/06/25 11:37:38;;;;;;;4.43;1.08;;;;;;;;;;5036009;28;20214;-83
2022/06/25 11:40:13;;;;;;;2.53;1.20;;;;;;;;;;5035298;28;20728;-83
2022/06/25 11:42:40;;;;;;;1.35;1.25;;;;;;;;;;5036160;28;20733;-82
2022/06/25 11:45:08;;;;;;;2.28;1.08;;;;;;;;;;5034801;28;20264;-83
2022/06/25 11:47:35;;;;;;;1.90;1.02;;;;;;;;;;5036209;28;20650;-83
2022/06/25 11:50:07;;;;;;;2.20;1.25;;;;;;;;;;5035564;28;20234;-84
2022/06/25 11:52:34;;;;;;;1.58;1.10;;;;;;;;;;5035590;28;20230;-84
2022/06/25 11:55:02;;;;;;;2.05;1.05;;;;;;;;;;5034188;28;20230;-83
2022/06/25 11:57:34;;;;;;;2.05;1.00;;;;;;;;;;5035519;28;20241;-84
2022/06/25 12:00:02;;;;;;;3.38;1.20;;;;;;;;;;5038538;28;20235;-84
2022/06/25 12:02:29;;;;;;;1.80;1.20;;;;;;;;;;5035987;28;20242;-84
2022/06/25 12:04:57;;;;;;;2.30;1.20;;;;;;;;;;5042895;28;20234;-83
2022/06/25 12:07:25;;;;;;;1.40;1.23;;;;;;;;;;5035965;28;20299;-84
2022/06/25 12:09:53;;;;;;;1.75;1.65;;;;;;;;;;5035708;28;20706;-84
2022/06/25 12:12:21;;;;;;;1.48;1.20;;;;;;;;;;5044111;28;20226;-83
2022/06/25 12:14:50;;;;;;;0.88;0.65;;;;;;;;;;5038221;28;20238;-83
2022/06/25 12:17:17;;;;;;;1.90;0.93;;;;;;;;;;5038931;28;20206;-84
2022/06/25 12:19:45;;;;;;;3.22;1.08;;;;;;;;;;5036036;28;20238;-84
2022/06/25 12:22:19;;;;;;;1.73;0.90;;;;;;;;;;5036993;28;20276;-83
2022/06/25 12:24:46;;;;;;;1.23;1.15;;;;;;;;;;5037095;28;20230;-84
2022/06/25 12:27:13;;;;;;;1.92;1.02;;;;;;;;;;5038344;28;20212;-84
2022/06/25 12:29:40;;;;;;;1.33;1.00;;;;;;;;;;5036965;28;20241;-83
2022/06/25 12:32:09;;;;;;;0.82;0.82;;;;;;;;;;5036316;28;20229;-83
2022/06/25 12:34:46;;;;;;;1.20;1.10;;;;;;;;;;5034961;28;20615;-83
2022/06/25 12:37:13;;;;;;;4.82;0.80;;;;;;;;;;5035269;28;20198;-84
2022/06/25 12:39:45;;;;;;;1.40;1.30;;;;;;;;;;5034289;28;20244;-84
2022/06/25 12:42:14;;;;;;;1.40;1.30;;;;;;;;;;5038179;28;20268;-83
2022/06/25 12:44:42;;;;;;;1.48;1.20;;;;;;;;;;5035869;28;20240;-84
2022/06/25 12:47:12;;;;;;;2.72;1.10;;;;;;;;;;5034254;28;20217;-83
2022/06/25 12:49:43;;;;;;;1.48;1.00;;;;;;;;;;5038110;28;20234;-83
2022/06/25 12:52:10;;;;;;;1.73;0.90;;;;;;;;;;5036171;28;20264;-83
2022/06/25 12:54:44;;;;;;;1.48;1.27;;;;;;;;;;5037027;28;20736;-84
2022/06/25 12:57:18;;;;;;;2.78;0.90;;;;;;;;;;5037245;28;20210;-84
2022/06/25 12:59:45;;;;;;;1.88;1.13;;;;;;;;;;5036031;28;20244;-84
2022/06/25 13:02:14;;;;;;;1.42;1.02;;;;;;;;;;5034384;28;20753;-84
2022/06/25 13:04:42;;;;;;;1.38;1.20;;;;;;;;;;5034489;28;20243;-84
2022/06/25 13:07:09;;;;;;;0.90;0.75;;;;;;;;;;5034852;28;20211;-84
2022/06/25 13:09:37;;;;;;;2.10;0.80;;;;;;;;;;5035079;28;20246;-84
2022/06/25 13:12:04;;;;;;;1.40;0.98;;;;;;;;;;5037696;28;20234;-84
2022/06/25 13:14:31;;;;;;;1.20;1.10;;;;;;;;;;5037539;28;20234;-82
2022/06/25 13:16:58;;;;;;;1.23;1.13;;;;;;;;;;5033330;28;20838;-83
2022/06/25 13:19:27;;;;;;;2.17;1.25;;;;;;;;;;5032632;28;20241;-83
2022/06/25 13:21:54;;;;;;;1.35;0.90;;;;;;;;;;5033806;28;20222;-84
2022/06/25 13:24:21;;;;;;;1.20;1.10;;;;;;;;;;5032390;28;20608;-84
2022/06/25 13:26:48;;;;;;;1.17;0.80;;;;;;;;;;5036770;28;20233;-83
2022/06/25 13:29:15;;;;;;;2.08;0.90;;;;;;;;;;5040439;28;20321;-84
2022/06/25 13:31:42;;;;;;;1.73;0.90;;;;;;;;;;5037824;28;20234;-83
2022/06/25 13:34:09;;;;;;;0.82;0.82;;;;;;;;;;5033163;28;20623;-83
2022/06/25 13:36:38;;;;;;;1.20;1.00;;;;;;;;;;5034832;28;20655;-84
2022/06/25 13:39:06;;;;;;;1.00;1.00;;;;;;;;;;5034825;28;20238;-84
2022/06/25 13:41:33;;;;;;;0.80;0.80;;;;;;;;;;5040622;28;20590;-84
2022/06/25 13:44:00;;;;;;;1.40;0.80;;;;;;;;;;5033038;28;20245;-84
2022/06/25 13:46:27;;;;;;;0.88;0.80;;;;;;;;;;5034444;28;20214;-84
2022/06/25 13:48:54;;;;;;;2.92;0.80;;;;;;;;;;5034167;28;20238;-84
2022/06/25 13:51:22;;;;;;;1.30;0.90;;;;;;;;;;5035667;28;20253;-83
2022/06/25 13:53:51;;;;;;;2.05;0.80;;;;;;;;;;5036041;28;20595;-83
2022/06/25 13:56:18;;;;;;;1.23;0.80;;;;;;;;;;5035320;28;20211;-83
2022/06/25 13:58:45;;;;;;;2.42;0.90;;;;;;;;;;5032994;28;20207;-83
2022/06/25 14:01:12;;;;;;;0.90;0.90;;;;;;;;;;5034084;28;20715;-82
2022/06/25 14:03:40;;;;;;;1.08;0.95;;;;;;;;;;5034312;28;20650;-83
2022/06/25 14:06:07;;;;;;;1.48;0.85;;;;;;;;;;5035441;28;20280;-83
2022/06/25 14:08:35;;;;;;;1.38;1.00;;;;;;;;;;5035255;28;20566;-83
2022/06/25 14:11:03;;;;;;;1.77;1.10;;;;;;;;;;5035435;28;20223;-83
2022/06/25 14:13:30;;;;;;;0.85;0.70;;;;;;;;;;5035086;28;20210;-83
2022/06/25 14:15:58;;;;;;;0.82;0.82;;;;;;;;;;5035240;28;20195;-84
2022/06/25 14:18:25;;;;;;;0.85;0.85;;;;;;;;;;5034297;28;20203;-83
2022/06/25 14:20:52;;;;;;;1.85;1.00;;;;;;;;;;5033663;28;20245;-83
2022/06/25 14:23:19;;;;;;;2.75;0.85;;;;;;;;;;5038899;28;20569;-83
2022/06/25 14:25:46;;;;;;;1.38;0.95;;;;;;;;;;5037838;28;20234;-83
2022/06/25 14:28:16;;;;;;;1.30;0.88;;;;;;;;;;5037562;28;20222;-83
2022/06/25 14:30:43;;;;;;;1.15;0.85;;;;;;;;;;5036997;28;20234;-82
2022/06/25 14:33:12;;;;;;;1.45;0.95;;;;;;;;;;5037315;28;20217;-83
2022/06/25 14:35:39;;;;;;;0.80;0.68;;;;;;;;;;5037571;28;20292;-83
2022/06/25 14:43:37;;;;;;;1.90;1.02;;;;;;;;;;5039092;28;20294;-83
2022/06/25 14:46:04;;;;;;;1.48;0.82;;;;;;;;;;5039544;28;20217;-83
2022/06/25 14:48:31;;;;;;;1.77;1.02;;;;;;;;;;5038060;28;20218;-83
2022/06/25 14:50:59;;;;;;;0.80;0.80;;;;;;;;;;5040699;28;20227;-84
2022/06/25 14:53:26;;;;;;;0.93;0.80;;;;;;;;;;5038767;28;20675;-84
2022/06/25 14:55:53;;;;;;;1.20;1.10;;;;;;;;;;5039596;28;20238;-83
2022/06/25 14:58:20;;;;;;;3.95;1.00;;;;;;;;;;5040466;28;20632;-83
2022/06/25 15:00:49;;;;;;;0.80;0.80;;;;;;;;;;5042763;28;20749;-83
2022/06/25 15:03:16;;;;;;;2.65;0.90;;;;;;;;;;5041399;28;20202;-83
2022/06/25 15:05:46;;;;;;;0.70;0.70;;;;;;;;;;5040116;28;20245;-82
2022/06/25 15:08:13;;;;;;;0.90;0.90;;;;;;;;;;5040882;28;20297;-83
2022/06/25 15:10:41;;;;;;;0.88;0.80;;;;;;;;;;5039294;28;20284;-83
2022/06/25 15:13:08;;;;;;;1.73;1.00;;;;;;;;;;5040912;28;20237;-83